Pagina principală
METAR-TAF:

METAR-TAF

Aeroporturi :

Wanaham

Lifou, Noua Caledonie

Latitudine: 20-46S, longitudine: 167-14E, elevație: 28 m

METAR: lipsă

Ora: 04:34 (17:34 UTC)

Prognoză

Raportul a fost făcut în urmă cu 6 ore și 34 de minute, la 11:00 UTC
Prognoză valabilă de la 21 ora 12 UTC la 22 ora 12 UTC
Vânt 6 kt de la Sud/Sud-est
Vizibilitate de 10 km sau mai mult
Nori puțini la o înălțime de 3500 picior

TAF: NWWL 211100Z 2112/2212 16006KT 9999 FEW035

Observații și prognoze meteo pentru peste 4.000 de aeroporturi (rapoarte METAR și TAF).

Stațiile disponibile sunt reprezentate pe hartă prin puncte galbene și roșii.

Țineți indicatorul mouse-ului pe punctul dorit pentru a vedea denumirea stației.

Apoi, faceți clic pentru a vedea observațiile și prognozele meteorologice.

Pentru a schimba harta: Pentru mărire, faceți clic pe butoanele verzi cu cruce neagră; pentru micșorare, pe butonul verde cu o liniuță; pentru hărți învecinate, pe săgețile verzi.


METAR-TAF: